sensor_id;sensor_type;location;lat;lon;timestamp;temperature;humidity
27164;DHT22;14685;50.618;7.024;2023-07-13T00:02:07;22.60;93.70
27164;DHT22;14685;50.618;7.024;2023-07-13T00:04:36;22.70;93.90
27164;DHT22;14685;50.618;7.024;2023-07-13T00:07:04;22.60;94.10
27164;DHT22;14685;50.618;7.024;2023-07-13T00:09:32;22.50;94.10
27164;DHT22;14685;50.618;7.024;2023-07-13T00:11:59;22.40;94.20
27164;DHT22;14685;50.618;7.024;2023-07-13T00:14:27;22.50;94.40
27164;DHT22;14685;50.618;7.024;2023-07-13T00:16:55;22.40;94.40
27164;DHT22;14685;50.618;7.024;2023-07-13T00:19:22;22.40;94.50
27164;DHT22;14685;50.618;7.024;2023-07-13T00:21:49;22.30;94.40
27164;DHT22;14685;50.618;7.024;2023-07-13T00:24:18;22.40;94.50
27164;DHT22;14685;50.618;7.024;2023-07-13T00:26:50;22.20;94.50
27164;DHT22;14685;50.618;7.024;2023-07-13T00:29:18;22.20;94.40
27164;DHT22;14685;50.618;7.024;2023-07-13T00:31:45;22.20;94.50
27164;DHT22;14685;50.618;7.024;2023-07-13T00:34:13;22.10;94.50
27164;DHT22;14685;50.618;7.024;2023-07-13T00:36:42;22.10;94.60
27164;DHT22;14685;50.618;7.024;2023-07-13T00:39:09;22.00;94.60
27164;DHT22;14685;50.618;7.024;2023-07-13T00:41:36;22.00;94.80
27164;DHT22;14685;50.618;7.024;2023-07-13T00:44:04;22.00;95.00
27164;DHT22;14685;50.618;7.024;2023-07-13T00:49:04;21.90;95.00
27164;DHT22;14685;50.618;7.024;2023-07-13T00:51:52;21.80;95.40
27164;DHT22;14685;50.618;7.024;2023-07-13T00:54:41;21.80;95.60
27164;DHT22;14685;50.618;7.024;2023-07-13T00:57:14;21.80;95.70
27164;DHT22;14685;50.618;7.024;2023-07-13T00:59:43;21.80;95.80
27164;DHT22;14685;50.618;7.024;2023-07-13T01:02:13;21.80;95.80
27164;DHT22;14685;50.618;7.024;2023-07-13T01:04:40;21.70;95.80
27164;DHT22;14685;50.618;7.024;2023-07-13T01:07:11;21.70;95.80
27164;DHT22;14685;50.618;7.024;2023-07-13T01:12:07;21.60;95.80
27164;DHT22;14685;50.618;7.024;2023-07-13T01:14:34;21.60;96.30
27164;DHT22;14685;50.618;7.024;2023-07-13T01:17:01;21.60;96.30
27164;DHT22;14685;50.618;7.024;2023-07-13T01:22:09;21.30;96.00
27164;DHT22;14685;50.618;7.024;2023-07-13T01:24:41;21.30;96.40
27164;DHT22;14685;50.618;7.024;2023-07-13T01:27:13;21.40;96.40
27164;DHT22;14685;50.618;7.024;2023-07-13T01:29:42;21.20;96.50
27164;DHT22;14685;50.618;7.024;2023-07-13T01:32:16;21.20;96.60
27164;DHT22;14685;50.618;7.024;2023-07-13T01:34:43;21.00;96.50
27164;DHT22;14685;50.618;7.024;2023-07-13T01:37:12;21.00;96.60
27164;DHT22;14685;50.618;7.024;2023-07-13T01:39:39;20.90;96.80
27164;DHT22;14685;50.618;7.024;2023-07-13T01:42:07;20.90;96.90
27164;DHT22;14685;50.618;7.024;2023-07-13T01:44:35;20.90;97.00
27164;DHT22;14685;50.618;7.024;2023-07-13T01:47:03;20.80;97.10
27164;DHT22;14685;50.618;7.024;2023-07-13T01:49:32;20.80;97.30
27164;DHT22;14685;50.618;7.024;2023-07-13T01:51:59;20.80;97.30
27164;DHT22;14685;50.618;7.024;2023-07-13T01:54:27;20.70;97.30
27164;DHT22;14685;50.618;7.024;2023-07-13T01:56:54;20.70;97.30
27164;DHT22;14685;50.618;7.024;2023-07-13T01:59:20;20.50;97.10
27164;DHT22;14685;50.618;7.024;2023-07-13T02:01:47;20.70;97.40
27164;DHT22;14685;50.618;7.024;2023-07-13T02:04:15;20.60;97.40
27164;DHT22;14685;50.618;7.024;2023-07-13T02:06:41;20.60;97.50
27164;DHT22;14685;50.618;7.024;2023-07-13T02:09:09;20.50;97.60
27164;DHT22;14685;50.618;7.024;2023-07-13T02:11:36;20.50;97.60
27164;DHT22;14685;50.618;7.024;2023-07-13T02:14:03;20.50;97.70
27164;DHT22;14685;50.618;7.024;2023-07-13T02:18:58;20.30;97.50
27164;DHT22;14685;50.618;7.024;2023-07-13T02:21:27;20.20;98.00
27164;DHT22;14685;50.618;7.024;2023-07-13T02:23:54;20.20;97.90
27164;DHT22;14685;50.618;7.024;2023-07-13T02:26:21;20.10;98.10
27164;DHT22;14685;50.618;7.024;2023-07-13T02:28:48;20.10;98.10
27164;DHT22;14685;50.618;7.024;2023-07-13T02:31:16;20.10;98.00
27164;DHT22;14685;50.618;7.024;2023-07-13T02:33:43;20.10;98.20
27164;DHT22;14685;50.618;7.024;2023-07-13T02:36:11;20.00;98.40
27164;DHT22;14685;50.618;7.024;2023-07-13T02:38:40;20.00;98.30
27164;DHT22;14685;50.618;7.024;2023-07-13T02:41:08;20.00;98.40
27164;DHT22;14685;50.618;7.024;2023-07-13T02:43:36;20.00;98.50
27164;DHT22;14685;50.618;7.024;2023-07-13T02:46:04;19.90;98.40
27164;DHT22;14685;50.618;7.024;2023-07-13T02:48:36;18.40;98.10
27164;DHT22;14685;50.618;7.024;2023-07-13T02:51:03;19.70;98.60
27164;DHT22;14685;50.618;7.024;2023-07-13T02:53:31;19.90;98.80
27164;DHT22;14685;50.618;7.024;2023-07-13T02:55:58;20.10;99.90
27164;DHT22;14685;50.618;7.024;2023-07-13T02:58:26;19.80;99.70
27164;DHT22;14685;50.618;7.024;2023-07-13T03:00:55;19.60;98.90
27164;DHT22;14685;50.618;7.024;2023-07-13T03:03:22;19.60;98.90
27164;DHT22;14685;50.618;7.024;2023-07-13T03:05:59;19.60;99.00
27164;DHT22;14685;50.618;7.024;2023-07-13T03:08:26;19.60;99.10
27164;DHT22;14685;50.618;7.024;2023-07-13T03:11:06;20.10;99.90
27164;DHT22;14685;50.618;7.024;2023-07-13T03:13:36;19.70;99.60
27164;DHT22;14685;50.618;7.024;2023-07-13T03:16:04;19.60;99.90
27164;DHT22;14685;50.618;7.024;2023-07-13T03:18:32;19.50;99.90
27164;DHT22;14685;50.618;7.024;2023-07-13T03:20:59;19.40;99.90
27164;DHT22;14685;50.618;7.024;2023-07-13T03:23:28;19.30;99.40
27164;DHT22;14685;50.618;7.024;2023-07-13T03:28:34;19.30;99.50
27164;DHT22;14685;50.618;7.024;2023-07-13T03:31:13;19.30;99.50
27164;DHT22;14685;50.618;7.024;2023-07-13T03:33:41;19.30;99.70
27164;DHT22;14685;50.618;7.024;2023-07-13T03:36:12;19.10;99.70
27164;DHT22;14685;50.618;7.024;2023-07-13T03:38:39;19.20;99.90
27164;DHT22;14685;50.618;7.024;2023-07-13T03:41:06;19.30;99.90
27164;DHT22;14685;50.618;7.024;2023-07-13T03:43:33;19.20;99.90
27164;DHT22;14685;50.618;7.024;2023-07-13T03:46:00;19.30;99.90
27164;DHT22;14685;50.618;7.024;2023-07-13T03:48:27;19.30;99.90
27164;DHT22;14685;50.618;7.024;2023-07-13T03:50:54;19.30;99.90
27164;DHT22;14685;50.618;7.024;2023-07-13T03:53:21;19.30;99.90
27164;DHT22;14685;50.618;7.024;2023-07-13T03:55:48;19.20;99.90
27164;DHT22;14685;50.618;7.024;2023-07-13T03:58:32;19.70;99.90
27164;DHT22;14685;50.618;7.024;2023-07-13T04:01:00;19.30;99.90
27164;DHT22;14685;50.618;7.024;2023-07-13T04:03:29;19.20;99.90
27164;DHT22;14685;50.618;7.024;2023-07-13T04:06:00;19.30;99.90
27164;DHT22;14685;50.618;7.024;2023-07-13T04:08:29;19.20;99.90
27164;DHT22;14685;50.618;7.024;2023-07-13T04:10:57;19.80;99.90
27164;DHT22;14685;50.618;7.024;2023-07-13T04:13:25;19.20;99.90
27164;DHT22;14685;50.618;7.024;2023-07-13T04:15:52;19.20;99.90
27164;DHT22;14685;50.618;7.024;2023-07-13T04:18:19;19.30;99.90
27164;DHT22;14685;50.618;7.024;2023-07-13T04:20:49;19.30;99.90
27164;DHT22;14685;50.618;7.024;2023-07-13T04:23:17;19.20;99.90
27164;DHT22;14685;50.618;7.024;2023-07-13T04:25:48;19.30;99.90
27164;DHT22;14685;50.618;7.024;2023-07-13T04:28:23;19.40;99.90
27164;DHT22;14685;50.618;7.024;2023-07-13T04:30:50;19.50;99.90
27164;DHT22;14685;50.618;7.024;2023-07-13T04:33:18;19.70;99.90
27164;DHT22;14685;50.618;7.024;2023-07-13T04:35:50;19.30;99.90
27164;DHT22;14685;50.618;7.024;2023-07-13T04:38:23;20.00;99.90
27164;DHT22;14685;50.618;7.024;2023-07-13T04:40:51;19.30;99.90
27164;DHT22;14685;50.618;7.024;2023-07-13T04:43:18;19.40;99.90
27164;DHT22;14685;50.618;7.024;2023-07-13T04:45:46;19.90;99.90
27164;DHT22;14685;50.618;7.024;2023-07-13T04:48:13;19.30;99.90
27164;DHT22;14685;50.618;7.024;2023-07-13T04:50:41;19.50;99.90
27164;DHT22;14685;50.618;7.024;2023-07-13T04:53:07;19.50;99.90
27164;DHT22;14685;50.618;7.024;2023-07-13T04:55:34;19.50;99.90
27164;DHT22;14685;50.618;7.024;2023-07-13T04:58:01;19.50;99.90
27164;DHT22;14685;50.618;7.024;2023-07-13T05:00:29;19.60;99.90
27164;DHT22;14685;50.618;7.024;2023-07-13T05:02:58;19.50;99.90
27164;DHT22;14685;50.618;7.024;2023-07-13T05:05:26;19.50;99.90
27164;DHT22;14685;50.618;7.024;2023-07-13T05:07:54;19.30;99.90
27164;DHT22;14685;50.618;7.024;2023-07-13T05:10:21;19.50;99.90
27164;DHT22;14685;50.618;7.024;2023-07-13T05:12:48;19.30;99.90
27164;DHT22;14685;50.618;7.024;2023-07-13T05:15:16;19.60;99.90
27164;DHT22;14685;50.618;7.024;2023-07-13T05:17:48;19.50;99.90
27164;DHT22;14685;50.618;7.024;2023-07-13T05:20:16;19.60;99.90
27164;DHT22;14685;50.618;7.024;2023-07-13T05:22:44;19.80;99.90
27164;DHT22;14685;50.618;7.024;2023-07-13T05:27:41;20.00;99.90
27164;DHT22;14685;50.618;7.024;2023-07-13T05:30:08;20.10;99.90
27164;DHT22;14685;50.618;7.024;2023-07-13T05:32:37;20.40;99.90
27164;DHT22;14685;50.618;7.024;2023-07-13T05:35:05;20.60;99.90
27164;DHT22;14685;50.618;7.024;2023-07-13T05:37:33;20.70;99.90
27164;DHT22;14685;50.618;7.024;2023-07-13T05:42:27;21.00;99.90
27164;DHT22;14685;50.618;7.024;2023-07-13T05:44:54;21.10;99.90
27164;DHT22;14685;50.618;7.024;2023-07-13T05:47:22;21.20;99.90
27164;DHT22;14685;50.618;7.024;2023-07-13T05:49:49;21.40;99.90
27164;DHT22;14685;50.618;7.024;2023-07-13T05:52:16;21.40;99.90
27164;DHT22;14685;50.618;7.024;2023-07-13T05:54:43;21.60;99.90
27164;DHT22;14685;50.618;7.024;2023-07-13T05:57:12;21.70;99.90
27164;DHT22;14685;50.618;7.024;2023-07-13T05:59:39;21.80;99.90
27164;DHT22;14685;50.618;7.024;2023-07-13T06:02:09;22.00;99.90
27164;DHT22;14685;50.618;7.024;2023-07-13T06:05:46;22.10;99.90
27164;DHT22;14685;50.618;7.024;2023-07-13T06:08:14;22.30;99.90
27164;DHT22;14685;50.618;7.024;2023-07-13T06:10:40;22.40;99.90
27164;DHT22;14685;50.618;7.024;2023-07-13T06:13:09;22.50;99.90
27164;DHT22;14685;50.618;7.024;2023-07-13T06:15:36;22.60;99.70
27164;DHT22;14685;50.618;7.024;2023-07-13T06:18:03;22.80;99.40
27164;DHT22;14685;50.618;7.024;2023-07-13T06:20:32;22.90;99.50
27164;DHT22;14685;50.618;7.024;2023-07-13T06:23:01;23.00;98.80
27164;DHT22;14685;50.618;7.024;2023-07-13T06:25:28;23.10;98.40
27164;DHT22;14685;50.618;7.024;2023-07-13T06:27:55;23.20;98.50
27164;DHT22;14685;50.618;7.024;2023-07-13T06:30:22;23.30;98.80
27164;DHT22;14685;50.618;7.024;2023-07-13T06:32:50;23.40;98.30
27164;DHT22;14685;50.618;7.024;2023-07-13T06:35:18;23.50;98.30
27164;DHT22;14685;50.618;7.024;2023-07-13T06:37:45;23.60;98.10
27164;DHT22;14685;50.618;7.024;2023-07-13T06:40:15;23.80;98.00
27164;DHT22;14685;50.618;7.024;2023-07-13T06:42:44;23.90;97.60
27164;DHT22;14685;50.618;7.024;2023-07-13T06:45:11;24.00;97.70
27164;DHT22;14685;50.618;7.024;2023-07-13T06:47:38;24.20;97.30
27164;DHT22;14685;50.618;7.024;2023-07-13T06:50:06;24.30;97.60
27164;DHT22;14685;50.618;7.024;2023-07-13T06:52:33;24.40;97.40
27164;DHT22;14685;50.618;7.024;2023-07-13T06:55:00;24.50;96.60
27164;DHT22;14685;50.618;7.024;2023-07-13T06:57:30;24.50;96.40
27164;DHT22;14685;50.618;7.024;2023-07-13T06:59:57;24.40;96.50
27164;DHT22;14685;50.618;7.024;2023-07-13T07:02:24;24.40;96.20
27164;DHT22;14685;50.618;7.024;2023-07-13T07:04:51;24.50;96.50
27164;DHT22;14685;50.618;7.024;2023-07-13T07:07:19;24.60;97.00
27164;DHT22;14685;50.618;7.024;2023-07-13T07:09:46;24.80;96.00
27164;DHT22;14685;50.618;7.024;2023-07-13T07:14:41;25.00;96.30
27164;DHT22;14685;50.618;7.024;2023-07-13T07:17:08;25.20;96.40
27164;DHT22;14685;50.618;7.024;2023-07-13T07:19:35;25.80;96.20
27164;DHT22;14685;50.618;7.024;2023-07-13T07:22:02;25.40;95.40
27164;DHT22;14685;50.618;7.024;2023-07-13T07:24:29;25.50;99.90
27164;DHT22;14685;50.618;7.024;2023-07-13T07:26:56;25.40;95.10
27164;DHT22;14685;50.618;7.024;2023-07-13T07:29:26;25.60;95.80
27164;DHT22;14685;50.618;7.024;2023-07-13T07:31:59;25.60;95.10
27164;DHT22;14685;50.618;7.024;2023-07-13T07:34:47;25.70;95.10
27164;DHT22;14685;50.618;7.024;2023-07-13T07:37:16;25.90;95.60
27164;DHT22;14685;50.618;7.024;2023-07-13T07:39:45;26.00;94.90
27164;DHT22;14685;50.618;7.024;2023-07-13T07:42:32;26.20;95.20
27164;DHT22;14685;50.618;7.024;2023-07-13T07:44:59;26.40;94.50
27164;DHT22;14685;50.618;7.024;2023-07-13T07:47:28;26.50;94.30
27164;DHT22;14685;50.618;7.024;2023-07-13T07:49:56;26.60;94.30
27164;DHT22;14685;50.618;7.024;2023-07-13T07:52:23;26.70;94.30
27164;DHT22;14685;50.618;7.024;2023-07-13T07:54:51;26.80;93.30
27164;DHT22;14685;50.618;7.024;2023-07-13T07:57:21;27.00;93.50
27164;DHT22;14685;50.618;7.024;2023-07-13T07:59:51;27.10;93.30
27164;DHT22;14685;50.618;7.024;2023-07-13T08:02:20;27.20;92.70
27164;DHT22;14685;50.618;7.024;2023-07-13T08:04:51;27.20;92.60
27164;DHT22;14685;50.618;7.024;2023-07-13T08:07:20;27.40;92.30
27164;DHT22;14685;50.618;7.024;2023-07-13T08:09:52;27.40;92.80
27164;DHT22;14685;50.618;7.024;2023-07-13T08:12:19;27.50;92.60
27164;DHT22;14685;50.618;7.024;2023-07-13T08:14:50;27.60;91.60
27164;DHT22;14685;50.618;7.024;2023-07-13T08:17:21;27.70;91.90
27164;DHT22;14685;50.618;7.024;2023-07-13T08:19:48;27.80;91.90
27164;DHT22;14685;50.618;7.024;2023-07-13T08:22:15;27.90;91.70
27164;DHT22;14685;50.618;7.024;2023-07-13T08:24:45;28.00;91.80
27164;DHT22;14685;50.618;7.024;2023-07-13T08:27:13;28.20;91.50
27164;DHT22;14685;50.618;7.024;2023-07-13T08:29:41;28.30;90.90
27164;DHT22;14685;50.618;7.024;2023-07-13T08:32:08;28.40;90.80
27164;DHT22;14685;50.618;7.024;2023-07-13T08:34:38;28.50;90.60
27164;DHT22;14685;50.618;7.024;2023-07-13T08:37:05;28.60;90.90
27164;DHT22;14685;50.618;7.024;2023-07-13T08:39:33;28.70;89.10
27164;DHT22;14685;50.618;7.024;2023-07-13T08:42:32;28.90;89.50
27164;DHT22;14685;50.618;7.024;2023-07-13T08:45:14;29.00;90.00
27164;DHT22;14685;50.618;7.024;2023-07-13T08:48:04;29.00;87.70
27164;DHT22;14685;50.618;7.024;2023-07-13T08:50:35;29.10;87.60
27164;DHT22;14685;50.618;7.024;2023-07-13T08:53:33;29.20;87.60
27164;DHT22;14685;50.618;7.024;2023-07-13T08:56:03;29.30;86.30
27164;DHT22;14685;50.618;7.024;2023-07-13T08:58:32;29.40;87.70
27164;DHT22;14685;50.618;7.024;2023-07-13T09:04:06;29.60;87.50
27164;DHT22;14685;50.618;7.024;2023-07-13T09:06:49;29.70;88.10
27164;DHT22;14685;50.618;7.024;2023-07-13T09:09:47;29.80;85.70
27164;DHT22;14685;50.618;7.024;2023-07-13T09:15:40;30.20;86.40
27164;DHT22;14685;50.618;7.024;2023-07-13T09:18:30;30.20;84.50
27164;DHT22;14685;50.618;7.024;2023-07-13T09:21:23;30.20;85.10
27164;DHT22;14685;50.618;7.024;2023-07-13T09:23:58;30.30;83.90
27164;DHT22;14685;50.618;7.024;2023-07-13T09:26:29;30.20;83.60
27164;DHT22;14685;50.618;7.024;2023-07-13T09:29:03;30.20;83.40
27164;DHT22;14685;50.618;7.024;2023-07-13T09:31:41;30.10;83.10
27164;DHT22;14685;50.618;7.024;2023-07-13T09:34:11;30.10;84.00
27164;DHT22;14685;50.618;7.024;2023-07-13T09:36:38;29.90;84.50
27164;DHT22;14685;50.618;7.024;2023-07-13T09:42:17;29.90;81.90
27164;DHT22;14685;50.618;7.024;2023-07-13T09:45:00;30.10;84.90
27164;DHT22;14685;50.618;7.024;2023-07-13T09:47:38;30.10;84.90
27164;DHT22;14685;50.618;7.024;2023-07-13T09:50:15;30.20;83.10
27164;DHT22;14685;50.618;7.024;2023-07-13T09:52:48;30.30;83.50
27164;DHT22;14685;50.618;7.024;2023-07-13T09:55:36;30.30;83.00
27164;DHT22;14685;50.618;7.024;2023-07-13T09:58:05;30.30;82.90
27164;DHT22;14685;50.618;7.024;2023-07-13T10:00:36;30.00;81.00
27164;DHT22;14685;50.618;7.024;2023-07-13T10:03:17;30.00;82.20
27164;DHT22;14685;50.618;7.024;2023-07-13T10:05:47;30.10;79.40
27164;DHT22;14685;50.618;7.024;2023-07-13T10:08:25;30.00;77.70
27164;DHT22;14685;50.618;7.024;2023-07-13T10:11:10;30.10;78.70
27164;DHT22;14685;50.618;7.024;2023-07-13T10:13:53;30.10;76.50
27164;DHT22;14685;50.618;7.024;2023-07-13T10:16:26;30.10;78.20
27164;DHT22;14685;50.618;7.024;2023-07-13T10:18:58;30.10;78.00
27164;DHT22;14685;50.618;7.024;2023-07-13T10:21:50;30.00;78.10
27164;DHT22;14685;50.618;7.024;2023-07-13T10:24:24;29.80;79.90
27164;DHT22;14685;50.618;7.024;2023-07-13T10:29:27;29.90;79.70
27164;DHT22;14685;50.618;7.024;2023-07-13T10:31:57;29.90;79.20
27164;DHT22;14685;50.618;7.024;2023-07-13T10:34:24;29.80;79.90
27164;DHT22;14685;50.618;7.024;2023-07-13T10:36:52;29.90;80.80
27164;DHT22;14685;50.618;7.024;2023-07-13T10:39:23;29.80;78.70
27164;DHT22;14685;50.618;7.024;2023-07-13T10:41:54;29.90;80.20
27164;DHT22;14685;50.618;7.024;2023-07-13T10:44:30;30.00;80.80
27164;DHT22;14685;50.618;7.024;2023-07-13T10:47:03;30.10;81.20
27164;DHT22;14685;50.618;7.024;2023-07-13T10:49:32;29.90;78.70
27164;DHT22;14685;50.618;7.024;2023-07-13T10:52:00;29.90;80.10
27164;DHT22;14685;50.618;7.024;2023-07-13T10:54:32;29.90;79.60
27164;DHT22;14685;50.618;7.024;2023-07-13T10:57:20;29.80;79.80
27164;DHT22;14685;50.618;7.024;2023-07-13T11:00:14;29.70;79.50
27164;DHT22;14685;50.618;7.024;2023-07-13T11:02:41;29.60;80.60
27164;DHT22;14685;50.618;7.024;2023-07-13T11:07:56;29.60;80.70
27164;DHT22;14685;50.618;7.024;2023-07-13T11:10:54;29.60;79.60
27164;DHT22;14685;50.618;7.024;2023-07-13T11:19:08;29.40;77.50
27164;DHT22;14685;50.618;7.024;2023-07-13T11:33:22;29.10;79.80
27164;DHT22;14685;50.618;7.024;2023-07-13T11:38:44;29.20;82.70
27164;DHT22;14685;50.618;7.024;2023-07-13T11:43:49;29.30;82.30
27164;DHT22;14685;50.618;7.024;2023-07-13T11:46:26;29.20;81.90
27164;DHT22;14685;50.618;7.024;2023-07-13T11:48:54;29.20;80.20
27164;DHT22;14685;50.618;7.024;2023-07-13T11:51:33;29.20;81.70
27164;DHT22;14685;50.618;7.024;2023-07-13T11:54:28;29.10;82.30
27164;DHT22;14685;50.618;7.024;2023-07-13T11:57:02;29.10;83.40
27164;DHT22;14685;50.618;7.024;2023-07-13T11:59:36;29.10;80.60
27164;DHT22;14685;50.618;7.024;2023-07-13T12:02:18;29.00;81.90
27164;DHT22;14685;50.618;7.024;2023-07-13T12:04:50;29.00;81.00
27164;DHT22;14685;50.618;7.024;2023-07-13T12:07:19;29.00;82.60
27164;DHT22;14685;50.618;7.024;2023-07-13T12:09:46;29.00;82.10
27164;DHT22;14685;50.618;7.024;2023-07-13T12:12:16;29.00;80.90
27164;DHT22;14685;50.618;7.024;2023-07-13T12:14:44;28.90;82.00
27164;DHT22;14685;50.618;7.024;2023-07-13T12:17:23;28.80;79.50
27164;DHT22;14685;50.618;7.024;2023-07-13T12:19:52;28.80;80.20
27164;DHT22;14685;50.618;7.024;2023-07-13T12:22:21;28.70;78.90
27164;DHT22;14685;50.618;7.024;2023-07-13T12:24:51;28.70;80.40
27164;DHT22;14685;50.618;7.024;2023-07-13T12:27:24;28.70;80.40
27164;DHT22;14685;50.618;7.024;2023-07-13T12:29:52;28.60;81.10
27164;DHT22;14685;50.618;7.024;2023-07-13T12:32:21;28.60;81.30
27164;DHT22;14685;50.618;7.024;2023-07-13T12:34:55;28.40;80.80
27164;DHT22;14685;50.618;7.024;2023-07-13T12:37:23;28.40;81.30
27164;DHT22;14685;50.618;7.024;2023-07-13T12:39:51;28.40;83.10
27164;DHT22;14685;50.618;7.024;2023-07-13T12:42:28;28.40;83.20
27164;DHT22;14685;50.618;7.024;2023-07-13T12:45:20;28.40;83.00
27164;DHT22;14685;50.618;7.024;2023-07-13T12:47:55;28.30;82.30
27164;DHT22;14685;50.618;7.024;2023-07-13T12:50:42;28.30;82.80
27164;DHT22;14685;50.618;7.024;2023-07-13T12:53:15;28.30;83.10
27164;DHT22;14685;50.618;7.024;2023-07-13T12:56:01;28.20;82.40
27164;DHT22;14685;50.618;7.024;2023-07-13T12:58:36;28.20;83.20
27164;DHT22;14685;50.618;7.024;2023-07-13T13:01:07;28.10;82.90
27164;DHT22;14685;50.618;7.024;2023-07-13T13:03:37;28.00;82.50
27164;DHT22;14685;50.618;7.024;2023-07-13T13:06:17;28.00;83.00
27164;DHT22;14685;50.618;7.024;2023-07-13T13:08:48;28.10;81.90
27164;DHT22;14685;50.618;7.024;2023-07-13T13:11:20;28.10;83.30
27164;DHT22;14685;50.618;7.024;2023-07-13T13:13:47;28.10;83.20
27164;DHT22;14685;50.618;7.024;2023-07-13T13:18:55;28.00;83.20
27164;DHT22;14685;50.618;7.024;2023-07-13T13:21:24;28.00;82.40
27164;DHT22;14685;50.618;7.024;2023-07-13T13:23:52;28.00;84.30
27164;DHT22;14685;50.618;7.024;2023-07-13T13:26:22;27.90;84.20
27164;DHT22;14685;50.618;7.024;2023-07-13T13:28:49;27.90;85.00
27164;DHT22;14685;50.618;7.024;2023-07-13T13:31:16;27.90;84.50
27164;DHT22;14685;50.618;7.024;2023-07-13T13:33:47;27.90;84.50
27164;DHT22;14685;50.618;7.024;2023-07-13T13:36:19;27.80;82.80
27164;DHT22;14685;50.618;7.024;2023-07-13T13:38:48;27.70;82.70
27164;DHT22;14685;50.618;7.024;2023-07-13T13:41:16;27.60;83.80
27164;DHT22;14685;50.618;7.024;2023-07-13T13:43:43;27.60;83.80
27164;DHT22;14685;50.618;7.024;2023-07-13T13:46:20;27.60;83.80
27164;DHT22;14685;50.618;7.024;2023-07-13T13:48:51;27.50;83.80
27164;DHT22;14685;50.618;7.024;2023-07-13T13:51:20;27.50;85.40
27164;DHT22;14685;50.618;7.024;2023-07-13T13:53:48;27.50;84.50
27164;DHT22;14685;50.618;7.024;2023-07-13T13:56:17;27.50;86.00
27164;DHT22;14685;50.618;7.024;2023-07-13T13:58:44;27.60;84.70
27164;DHT22;14685;50.618;7.024;2023-07-13T14:01:13;27.70;84.90
27164;DHT22;14685;50.618;7.024;2023-07-13T14:03:43;27.80;84.50
27164;DHT22;14685;50.618;7.024;2023-07-13T14:06:14;27.80;85.30
27164;DHT22;14685;50.618;7.024;2023-07-13T14:08:43;27.80;83.30
27164;DHT22;14685;50.618;7.024;2023-07-13T14:11:15;27.70;84.40
27164;DHT22;14685;50.618;7.024;2023-07-13T14:13:48;27.80;84.20
27164;DHT22;14685;50.618;7.024;2023-07-13T14:16:20;27.80;83.30
27164;DHT22;14685;50.618;7.024;2023-07-13T14:18:49;27.80;81.60
27164;DHT22;14685;50.618;7.024;2023-07-13T14:21:20;27.80;83.40
27164;DHT22;14685;50.618;7.024;2023-07-13T14:23:48;27.80;81.90
27164;DHT22;14685;50.618;7.024;2023-07-13T14:26:22;27.80;84.20
27164;DHT22;14685;50.618;7.024;2023-07-13T14:28:53;27.80;83.60
27164;DHT22;14685;50.618;7.024;2023-07-13T14:31:22;27.80;82.20
27164;DHT22;14685;50.618;7.024;2023-07-13T14:33:54;27.80;83.70
27164;DHT22;14685;50.618;7.024;2023-07-13T14:36:31;27.80;84.10
27164;DHT22;14685;50.618;7.024;2023-07-13T14:39:15;27.80;84.50
27164;DHT22;14685;50.618;7.024;2023-07-13T14:41:44;27.70;84.70
27164;DHT22;14685;50.618;7.024;2023-07-13T14:44:15;27.80;85.60
27164;DHT22;14685;50.618;7.024;2023-07-13T14:46:45;27.80;84.20
27164;DHT22;14685;50.618;7.024;2023-07-13T14:52:00;27.80;83.40
27164;DHT22;14685;50.618;7.024;2023-07-13T14:54:30;27.70;83.20
27164;DHT22;14685;50.618;7.024;2023-07-13T14:56:57;27.70;82.40
27164;DHT22;14685;50.618;7.024;2023-07-13T14:59:25;27.60;82.50
27164;DHT22;14685;50.618;7.024;2023-07-13T15:01:53;27.60;83.90
27164;DHT22;14685;50.618;7.024;2023-07-13T15:04:21;27.60;83.60
27164;DHT22;14685;50.618;7.024;2023-07-13T15:07:00;27.50;82.40
27164;DHT22;14685;50.618;7.024;2023-07-13T15:09:29;27.60;82.30
27164;DHT22;14685;50.618;7.024;2023-07-13T15:11:57;27.50;82.00
27164;DHT22;14685;50.618;7.024;2023-07-13T15:14:25;27.60;82.20
27164;DHT22;14685;50.618;7.024;2023-07-13T15:16:54;27.60;82.60
27164;DHT22;14685;50.618;7.024;2023-07-13T15:19:23;27.60;82.20
27164;DHT22;14685;50.618;7.024;2023-07-13T15:21:50;27.60;82.40
27164;DHT22;14685;50.618;7.024;2023-07-13T15:24:19;27.60;82.00
27164;DHT22;14685;50.618;7.024;2023-07-13T15:26:47;27.60;82.30
27164;DHT22;14685;50.618;7.024;2023-07-13T15:29:16;27.70;81.80
27164;DHT22;14685;50.618;7.024;2023-07-13T15:31:44;27.60;83.50
27164;DHT22;14685;50.618;7.024;2023-07-13T15:34:13;27.60;83.00
27164;DHT22;14685;50.618;7.024;2023-07-13T15:36:41;27.50;84.30
27164;DHT22;14685;50.618;7.024;2023-07-13T15:39:14;27.50;83.60
27164;DHT22;14685;50.618;7.024;2023-07-13T15:41:44;27.50;84.00
27164;DHT22;14685;50.618;7.024;2023-07-13T15:44:28;27.50;84.50
27164;DHT22;14685;50.618;7.024;2023-07-13T15:46:56;27.50;82.40
27164;DHT22;14685;50.618;7.024;2023-07-13T15:49:24;27.50;83.20
27164;DHT22;14685;50.618;7.024;2023-07-13T15:51:51;27.40;83.40
27164;DHT22;14685;50.618;7.024;2023-07-13T15:54:22;27.40;83.30
27164;DHT22;14685;50.618;7.024;2023-07-13T15:56:53;27.40;84.20
27164;DHT22;14685;50.618;7.024;2023-07-13T15:59:21;27.40;83.80
27164;DHT22;14685;50.618;7.024;2023-07-13T16:01:48;27.40;83.50
27164;DHT22;14685;50.618;7.024;2023-07-13T16:04:16;27.40;83.10
27164;DHT22;14685;50.618;7.024;2023-07-13T16:06:48;27.40;84.20
27164;DHT22;14685;50.618;7.024;2023-07-13T16:09:20;27.40;83.30
27164;DHT22;14685;50.618;7.024;2023-07-13T16:11:49;27.40;83.80
27164;DHT22;14685;50.618;7.024;2023-07-13T16:14:17;27.40;83.40
27164;DHT22;14685;50.618;7.024;2023-07-13T16:16:47;27.50;83.70
27164;DHT22;14685;50.618;7.024;2023-07-13T16:19:16;27.50;83.30
27164;DHT22;14685;50.618;7.024;2023-07-13T16:21:50;27.50;83.50
27164;DHT22;14685;50.618;7.024;2023-07-13T16:24:18;27.50;83.30
27164;DHT22;14685;50.618;7.024;2023-07-13T16:26:48;27.40;83.20
27164;DHT22;14685;50.618;7.024;2023-07-13T16:29:24;27.40;83.70
27164;DHT22;14685;50.618;7.024;2023-07-13T16:32:10;27.40;84.70
27164;DHT22;14685;50.618;7.024;2023-07-13T16:34:39;27.40;84.70
27164;DHT22;14685;50.618;7.024;2023-07-13T16:37:19;27.40;84.50
27164;DHT22;14685;50.618;7.024;2023-07-13T16:39:54;27.40;84.80
27164;DHT22;14685;50.618;7.024;2023-07-13T16:42:22;27.40;85.00
27164;DHT22;14685;50.618;7.024;2023-07-13T16:44:49;27.40;85.20
27164;DHT22;14685;50.618;7.024;2023-07-13T16:47:18;27.30;85.80
27164;DHT22;14685;50.618;7.024;2023-07-13T16:49:46;27.30;86.60
27164;DHT22;14685;50.618;7.024;2023-07-13T16:52:16;27.20;87.20
27164;DHT22;14685;50.618;7.024;2023-07-13T16:54:49;27.10;87.80
27164;DHT22;14685;50.618;7.024;2023-07-13T16:57:19;27.10;88.10